sensor_id;sensor_type;location;lat;lon;timestamp;temperature;humidity
35085;SHT85;21267;51.032;6.998;2024-02-23T00:01:12;7.56;76.78
35085;SHT85;21267;51.032;6.998;2024-02-23T00:03:39;7.51;76.93
35085;SHT85;21267;51.032;6.998;2024-02-23T00:06:06;7.41;77.22
35085;SHT85;21267;51.032;6.998;2024-02-23T00:08:33;7.40;77.33
35085;SHT85;21267;51.032;6.998;2024-02-23T00:11:00;7.38;77.23
35085;SHT85;21267;51.032;6.998;2024-02-23T00:13:27;7.44;77.49
35085;SHT85;21267;51.032;6.998;2024-02-23T00:15:54;7.32;77.71
35085;SHT85;21267;51.032;6.998;2024-02-23T00:18:20;7.32;77.76
35085;SHT85;21267;51.032;6.998;2024-02-23T00:20:47;7.32;77.90
35085;SHT85;21267;51.032;6.998;2024-02-23T00:23:14;7.30;78.01
35085;SHT85;21267;51.032;6.998;2024-02-23T00:25:41;7.32;78.24
35085;SHT85;21267;51.032;6.998;2024-02-23T00:28:08;7.31;78.57
35085;SHT85;21267;51.032;6.998;2024-02-23T00:30:35;7.18;79.00
35085;SHT85;21267;51.032;6.998;2024-02-23T00:33:03;7.18;79.24
35085;SHT85;21267;51.032;6.998;2024-02-23T00:35:30;6.97;79.63
35085;SHT85;21267;51.032;6.998;2024-02-23T00:37:57;6.84;80.22
35085;SHT85;21267;51.032;6.998;2024-02-23T00:40:23;6.77;80.50
35085;SHT85;21267;51.032;6.998;2024-02-23T00:42:50;6.75;80.67
35085;SHT85;21267;51.032;6.998;2024-02-23T00:45:17;6.69;80.81
35085;SHT85;21267;51.032;6.998;2024-02-23T00:47:44;6.62;81.08
35085;SHT85;21267;51.032;6.998;2024-02-23T00:50:13;6.59;81.32
35085;SHT85;21267;51.032;6.998;2024-02-23T00:52:41;6.59;81.28
35085;SHT85;21267;51.032;6.998;2024-02-23T00:55:08;6.53;81.22
35085;SHT85;21267;51.032;6.998;2024-02-23T01:01:41;6.48;81.66
35085;SHT85;21267;51.032;6.998;2024-02-23T01:04:08;6.48;81.88
35085;SHT85;21267;51.032;6.998;2024-02-23T01:06:48;6.48;82.59
35085;SHT85;21267;51.032;6.998;2024-02-23T01:09:28;6.53;82.92
35085;SHT85;21267;51.032;6.998;2024-02-23T01:11:55;6.50;82.50
35085;SHT85;21267;51.032;6.998;2024-02-23T01:14:22;6.52;82.47
35085;SHT85;21267;51.032;6.998;2024-02-23T01:16:49;6.56;81.17
35085;SHT85;21267;51.032;6.998;2024-02-23T01:19:16;6.50;81.40
35085;SHT85;21267;51.032;6.998;2024-02-23T01:21:43;6.49;81.89
35085;SHT85;21267;51.032;6.998;2024-02-23T01:24:10;6.50;81.44
35085;SHT85;21267;51.032;6.998;2024-02-23T01:26:36;6.55;80.99
35085;SHT85;21267;51.032;6.998;2024-02-23T01:29:08;6.52;80.91
35085;SHT85;21267;51.032;6.998;2024-02-23T01:31:34;6.56;80.85
35085;SHT85;21267;51.032;6.998;2024-02-23T01:34:01;6.61;80.49
35085;SHT85;21267;51.032;6.998;2024-02-23T01:36:28;6.62;80.63
35085;SHT85;21267;51.032;6.998;2024-02-23T01:38:55;6.59;80.69
35085;SHT85;21267;51.032;6.998;2024-02-23T01:41:21;6.62;80.28
35085;SHT85;21267;51.032;6.998;2024-02-23T01:43:49;6.62;80.21
35085;SHT85;21267;51.032;6.998;2024-02-23T01:46:17;6.59;80.71
35085;SHT85;21267;51.032;6.998;2024-02-23T01:48:45;6.50;80.52
35085;SHT85;21267;51.032;6.998;2024-02-23T01:51:12;6.46;80.89
35085;SHT85;21267;51.032;6.998;2024-02-23T01:53:39;6.41;80.57
35085;SHT85;21267;51.032;6.998;2024-02-23T01:56:06;6.31;81.23
35085;SHT85;21267;51.032;6.998;2024-02-23T01:58:35;6.26;81.22
35085;SHT85;21267;51.032;6.998;2024-02-23T02:01:02;6.31;81.47
35085;SHT85;21267;51.032;6.998;2024-02-23T02:03:28;6.26;81.40
35085;SHT85;21267;51.032;6.998;2024-02-23T02:05:56;6.20;81.67
35085;SHT85;21267;51.032;6.998;2024-02-23T02:08:27;6.20;81.97
35085;SHT85;21267;51.032;6.998;2024-02-23T02:10:54;6.24;81.79
35085;SHT85;21267;51.032;6.998;2024-02-23T02:13:22;6.17;81.86
35085;SHT85;21267;51.032;6.998;2024-02-23T02:15:48;6.20;82.01
35085;SHT85;21267;51.032;6.998;2024-02-23T02:18:15;6.22;81.49
35085;SHT85;21267;51.032;6.998;2024-02-23T02:20:50;6.20;81.55
35085;SHT85;21267;51.032;6.998;2024-02-23T02:23:18;6.13;81.42
35085;SHT85;21267;51.032;6.998;2024-02-23T02:25:45;6.17;81.45
35085;SHT85;21267;51.032;6.998;2024-02-23T02:28:12;6.15;81.43
35085;SHT85;21267;51.032;6.998;2024-02-23T02:30:38;6.17;81.59
35085;SHT85;21267;51.032;6.998;2024-02-23T02:33:05;6.17;81.52
35085;SHT85;21267;51.032;6.998;2024-02-23T02:35:32;6.11;81.05
35085;SHT85;21267;51.032;6.998;2024-02-23T02:37:59;6.14;81.34
35085;SHT85;21267;51.032;6.998;2024-02-23T02:40:25;6.07;81.11
35085;SHT85;21267;51.032;6.998;2024-02-23T02:42:52;6.05;80.74
35085;SHT85;21267;51.032;6.998;2024-02-23T02:45:19;6.08;80.73
35085;SHT85;21267;51.032;6.998;2024-02-23T02:47:46;6.13;80.96
35085;SHT85;21267;51.032;6.998;2024-02-23T02:50:13;6.07;81.22
35085;SHT85;21267;51.032;6.998;2024-02-23T02:52:40;6.05;81.14
35085;SHT85;21267;51.032;6.998;2024-02-23T02:55:07;6.17;80.92
35085;SHT85;21267;51.032;6.998;2024-02-23T02:57:34;6.14;80.88
35085;SHT85;21267;51.032;6.998;2024-02-23T03:00:03;6.07;80.95
35085;SHT85;21267;51.032;6.998;2024-02-23T03:02:32;5.95;80.85
35085;SHT85;21267;51.032;6.998;2024-02-23T03:04:58;5.94;81.06
35085;SHT85;21267;51.032;6.998;2024-02-23T03:07:25;5.93;80.78
35085;SHT85;21267;51.032;6.998;2024-02-23T03:09:52;5.83;80.77
35085;SHT85;21267;51.032;6.998;2024-02-23T03:12:20;5.97;80.54
35085;SHT85;21267;51.032;6.998;2024-02-23T03:14:46;5.83;80.46
35085;SHT85;21267;51.032;6.998;2024-02-23T03:17:15;5.87;80.25
35085;SHT85;21267;51.032;6.998;2024-02-23T03:19:41;5.86;80.25
35085;SHT85;21267;51.032;6.998;2024-02-23T03:22:08;5.78;80.30
35085;SHT85;21267;51.032;6.998;2024-02-23T03:24:39;5.74;80.17
35085;SHT85;21267;51.032;6.998;2024-02-23T03:27:06;5.77;80.09
35085;SHT85;21267;51.032;6.998;2024-02-23T03:29:33;5.80;79.73
35085;SHT85;21267;51.032;6.998;2024-02-23T03:32:00;5.84;79.55
35085;SHT85;21267;51.032;6.998;2024-02-23T03:34:28;5.82;79.40
35085;SHT85;21267;51.032;6.998;2024-02-23T03:36:54;5.78;79.12
35085;SHT85;21267;51.032;6.998;2024-02-23T03:39:21;5.83;79.19
35085;SHT85;21267;51.032;6.998;2024-02-23T03:41:48;5.76;79.06
35085;SHT85;21267;51.032;6.998;2024-02-23T03:44:14;5.87;78.95
35085;SHT85;21267;51.032;6.998;2024-02-23T03:46:41;5.83;79.04
35085;SHT85;21267;51.032;6.998;2024-02-23T03:49:08;5.67;79.44
35085;SHT85;21267;51.032;6.998;2024-02-23T03:51:35;5.78;78.91
35085;SHT85;21267;51.032;6.998;2024-02-23T03:54:06;5.67;79.26
35085;SHT85;21267;51.032;6.998;2024-02-23T03:56:42;5.70;79.18
35085;SHT85;21267;51.032;6.998;2024-02-23T03:59:09;5.73;79.13
35085;SHT85;21267;51.032;6.998;2024-02-23T04:01:37;5.74;78.89
35085;SHT85;21267;51.032;6.998;2024-02-23T04:04:05;5.67;79.16
35085;SHT85;21267;51.032;6.998;2024-02-23T04:06:33;5.74;79.22
35085;SHT85;21267;51.032;6.998;2024-02-23T04:09:00;5.86;78.77
35085;SHT85;21267;51.032;6.998;2024-02-23T04:11:27;5.87;78.89
35085;SHT85;21267;51.032;6.998;2024-02-23T04:13:54;5.95;78.35
35085;SHT85;21267;51.032;6.998;2024-02-23T04:16:25;5.95;78.37
35085;SHT85;21267;51.032;6.998;2024-02-23T04:18:53;5.91;78.69
35085;SHT85;21267;51.032;6.998;2024-02-23T04:21:21;6.00;78.61
35085;SHT85;21267;51.032;6.998;2024-02-23T04:23:48;6.03;78.39
35085;SHT85;21267;51.032;6.998;2024-02-23T04:26:15;6.03;78.27
35085;SHT85;21267;51.032;6.998;2024-02-23T04:28:42;6.05;78.36
35085;SHT85;21267;51.032;6.998;2024-02-23T04:31:09;6.08;78.61
35085;SHT85;21267;51.032;6.998;2024-02-23T04:33:37;6.10;78.23
35085;SHT85;21267;51.032;6.998;2024-02-23T04:36:04;6.14;78.47
35085;SHT85;21267;51.032;6.998;2024-02-23T04:38:31;6.15;78.50
35085;SHT85;21267;51.032;6.998;2024-02-23T04:40:58;6.14;78.63
35085;SHT85;21267;51.032;6.998;2024-02-23T04:43:28;6.13;78.78
35085;SHT85;21267;51.032;6.998;2024-02-23T04:45:55;6.01;79.26
35085;SHT85;21267;51.032;6.998;2024-02-23T04:48:22;5.95;79.69
35085;SHT85;21267;51.032;6.998;2024-02-23T04:50:49;5.90;79.94
35085;SHT85;21267;51.032;6.998;2024-02-23T04:53:15;5.84;79.93
35085;SHT85;21267;51.032;6.998;2024-02-23T04:55:42;5.86;80.17
35085;SHT85;21267;51.032;6.998;2024-02-23T04:58:09;5.83;80.18
35085;SHT85;21267;51.032;6.998;2024-02-23T05:00:36;5.82;80.21
35085;SHT85;21267;51.032;6.998;2024-02-23T05:03:03;5.80;80.23
35085;SHT85;21267;51.032;6.998;2024-02-23T05:05:30;5.82;80.36
35085;SHT85;21267;51.032;6.998;2024-02-23T05:07:58;5.86;79.99
35085;SHT85;21267;51.032;6.998;2024-02-23T05:10:26;5.86;79.71
35085;SHT85;21267;51.032;6.998;2024-02-23T05:12:53;5.91;79.89
35085;SHT85;21267;51.032;6.998;2024-02-23T05:15:22;5.86;79.76
35085;SHT85;21267;51.032;6.998;2024-02-23T05:17:49;5.84;79.92
35085;SHT85;21267;51.032;6.998;2024-02-23T05:20:16;5.86;79.90
35085;SHT85;21267;51.032;6.998;2024-02-23T05:22:43;5.89;79.66
35085;SHT85;21267;51.032;6.998;2024-02-23T05:25:09;5.86;79.59
35085;SHT85;21267;51.032;6.998;2024-02-23T05:27:36;5.78;79.77
35085;SHT85;21267;51.032;6.998;2024-02-23T05:30:03;5.77;79.75
35085;SHT85;21267;51.032;6.998;2024-02-23T05:32:30;5.69;80.06
35085;SHT85;21267;51.032;6.998;2024-02-23T05:34:58;5.70;79.96
35085;SHT85;21267;51.032;6.998;2024-02-23T05:37:26;5.66;80.10
35085;SHT85;21267;51.032;6.998;2024-02-23T05:39:54;5.60;80.13
35085;SHT85;21267;51.032;6.998;2024-02-23T05:42:24;5.66;80.23
35085;SHT85;21267;51.032;6.998;2024-02-23T05:44:51;5.56;80.10
35085;SHT85;21267;51.032;6.998;2024-02-23T05:47:17;5.55;80.24
35085;SHT85;21267;51.032;6.998;2024-02-23T05:49:44;5.59;80.11
35085;SHT85;21267;51.032;6.998;2024-02-23T05:52:11;5.59;79.95
35085;SHT85;21267;51.032;6.998;2024-02-23T05:54:38;5.56;79.93
35085;SHT85;21267;51.032;6.998;2024-02-23T05:57:05;5.56;80.04
35085;SHT85;21267;51.032;6.998;2024-02-23T05:59:31;5.60;80.00
35085;SHT85;21267;51.032;6.998;2024-02-23T06:01:58;5.50;80.17
35085;SHT85;21267;51.032;6.998;2024-02-23T06:04:25;5.42;80.62
35085;SHT85;21267;51.032;6.998;2024-02-23T06:06:55;5.35;80.90
35085;SHT85;21267;51.032;6.998;2024-02-23T06:09:22;5.35;80.95
35085;SHT85;21267;51.032;6.998;2024-02-23T06:11:49;5.34;81.02
35085;SHT85;21267;51.032;6.998;2024-02-23T06:14:16;5.31;81.32
35085;SHT85;21267;51.032;6.998;2024-02-23T06:16:43;5.38;81.26
35085;SHT85;21267;51.032;6.998;2024-02-23T06:19:10;5.40;81.05
35085;SHT85;21267;51.032;6.998;2024-02-23T06:21:37;5.40;80.96
35085;SHT85;21267;51.032;6.998;2024-02-23T06:24:05;5.46;80.95
35085;SHT85;21267;51.032;6.998;2024-02-23T06:26:47;5.42;80.83
35085;SHT85;21267;51.032;6.998;2024-02-23T06:29:15;5.40;81.02
35085;SHT85;21267;51.032;6.998;2024-02-23T06:31:56;5.28;81.48
35085;SHT85;21267;51.032;6.998;2024-02-23T06:34:22;5.26;81.63
35085;SHT85;21267;51.032;6.998;2024-02-23T06:37:03;5.36;81.41
35085;SHT85;21267;51.032;6.998;2024-02-23T06:39:30;5.31;81.47
35085;SHT85;21267;51.032;6.998;2024-02-23T06:41:57;5.25;81.49
35085;SHT85;21267;51.032;6.998;2024-02-23T06:44:31;5.15;81.72
35085;SHT85;21267;51.032;6.998;2024-02-23T06:46:58;5.15;82.08
35085;SHT85;21267;51.032;6.998;2024-02-23T06:49:25;5.18;81.88
35085;SHT85;21267;51.032;6.998;2024-02-23T06:52:01;5.14;82.11
35085;SHT85;21267;51.032;6.998;2024-02-23T06:54:28;5.31;81.85
35085;SHT85;21267;51.032;6.998;2024-02-23T06:56:55;5.19;82.05
35085;SHT85;21267;51.032;6.998;2024-02-23T06:59:22;5.16;82.35
35085;SHT85;21267;51.032;6.998;2024-02-23T07:02:04;5.14;82.05
35085;SHT85;21267;51.032;6.998;2024-02-23T07:04:31;5.15;82.31
35085;SHT85;21267;51.032;6.998;2024-02-23T07:06:58;5.16;82.19
35085;SHT85;21267;51.032;6.998;2024-02-23T07:09:33;5.18;82.13
35085;SHT85;21267;51.032;6.998;2024-02-23T07:12:00;5.19;81.99
35085;SHT85;21267;51.032;6.998;2024-02-23T07:14:29;5.19;82.01
35085;SHT85;21267;51.032;6.998;2024-02-23T07:16:57;5.12;82.12
35085;SHT85;21267;51.032;6.998;2024-02-23T07:19:23;5.19;82.07
35085;SHT85;21267;51.032;6.998;2024-02-23T07:21:50;5.18;82.08
35085;SHT85;21267;51.032;6.998;2024-02-23T07:24:31;5.14;82.18
35085;SHT85;21267;51.032;6.998;2024-02-23T07:26:58;5.03;82.52
35085;SHT85;21267;51.032;6.998;2024-02-23T07:33:38;4.97;82.82
35085;SHT85;21267;51.032;6.998;2024-02-23T07:36:06;4.88;83.20
35085;SHT85;21267;51.032;6.998;2024-02-23T07:38:35;4.91;83.24
35085;SHT85;21267;51.032;6.998;2024-02-23T07:41:02;4.89;83.55
35085;SHT85;21267;51.032;6.998;2024-02-23T07:43:29;5.35;82.80
35085;SHT85;21267;51.032;6.998;2024-02-23T07:45:56;5.83;81.12
35085;SHT85;21267;51.032;6.998;2024-02-23T07:48:23;6.35;80.03
35085;SHT85;21267;51.032;6.998;2024-02-23T07:50:50;6.90;78.34
35085;SHT85;21267;51.032;6.998;2024-02-23T07:53:17;7.14;77.51
35085;SHT85;21267;51.032;6.998;2024-02-23T07:55:44;7.38;77.00
35085;SHT85;21267;51.032;6.998;2024-02-23T07:58:10;7.72;76.04
35085;SHT85;21267;51.032;6.998;2024-02-23T08:00:37;7.83;75.78
35085;SHT85;21267;51.032;6.998;2024-02-23T08:03:05;8.04;74.85
35085;SHT85;21267;51.032;6.998;2024-02-23T08:05:33;8.37;74.61
35085;SHT85;21267;51.032;6.998;2024-02-23T08:07:59;8.44;73.27
35085;SHT85;21267;51.032;6.998;2024-02-23T08:10:27;8.78;72.93
35085;SHT85;21267;51.032;6.998;2024-02-23T08:12:54;8.53;71.84
35085;SHT85;21267;51.032;6.998;2024-02-23T08:15:21;8.58;71.81
35085;SHT85;21267;51.032;6.998;2024-02-23T08:17:48;8.98;71.48
35085;SHT85;21267;51.032;6.998;2024-02-23T08:20:15;9.20;70.67
35085;SHT85;21267;51.032;6.998;2024-02-23T08:22:42;8.43;71.47
35085;SHT85;21267;51.032;6.998;2024-02-23T08:25:09;8.09;73.33
35085;SHT85;21267;51.032;6.998;2024-02-23T08:27:41;7.76;73.47
35085;SHT85;21267;51.032;6.998;2024-02-23T08:30:08;7.47;74.61
35085;SHT85;21267;51.032;6.998;2024-02-23T08:32:35;7.28;74.86
35085;SHT85;21267;51.032;6.998;2024-02-23T08:35:03;7.28;74.86
35085;SHT85;21267;51.032;6.998;2024-02-23T08:37:30;7.36;74.38
35085;SHT85;21267;51.032;6.998;2024-02-23T08:39:57;7.44;74.78
35085;SHT85;21267;51.032;6.998;2024-02-23T08:42:24;8.29;73.05
35085;SHT85;21267;51.032;6.998;2024-02-23T08:44:51;8.23;72.20
35085;SHT85;21267;51.032;6.998;2024-02-23T08:47:18;9.09;70.78
35085;SHT85;21267;51.032;6.998;2024-02-23T08:49:45;9.03;69.87
35085;SHT85;21267;51.032;6.998;2024-02-23T08:52:12;8.88;70.29
35085;SHT85;21267;51.032;6.998;2024-02-23T08:54:39;8.34;71.51
35085;SHT85;21267;51.032;6.998;2024-02-23T08:57:06;8.00;72.29
35085;SHT85;21267;51.032;6.998;2024-02-23T08:59:33;7.83;72.54
35085;SHT85;21267;51.032;6.998;2024-02-23T09:02:00;7.78;72.90
35085;SHT85;21267;51.032;6.998;2024-02-23T09:04:26;7.82;72.70
35085;SHT85;21267;51.032;6.998;2024-02-23T09:06:53;7.72;72.57
35085;SHT85;21267;51.032;6.998;2024-02-23T09:09:20;7.71;72.72
35085;SHT85;21267;51.032;6.998;2024-02-23T09:11:47;7.82;72.87
35085;SHT85;21267;51.032;6.998;2024-02-23T09:14:14;7.86;72.81
35085;SHT85;21267;51.032;6.998;2024-02-23T09:16:41;8.06;72.63
35085;SHT85;21267;51.032;6.998;2024-02-23T09:19:08;7.93;72.65
35085;SHT85;21267;51.032;6.998;2024-02-23T09:21:35;7.87;73.14
35085;SHT85;21267;51.032;6.998;2024-02-23T09:24:02;7.99;72.72
35085;SHT85;21267;51.032;6.998;2024-02-23T09:26:29;7.94;72.86
35085;SHT85;21267;51.032;6.998;2024-02-23T09:28:58;7.97;72.77
35085;SHT85;21267;51.032;6.998;2024-02-23T09:31:24;7.97;72.89
35085;SHT85;21267;51.032;6.998;2024-02-23T09:33:52;8.04;72.85
35085;SHT85;21267;51.032;6.998;2024-02-23T09:36:19;8.06;72.65
35085;SHT85;21267;51.032;6.998;2024-02-23T09:38:47;8.22;72.67
35085;SHT85;21267;51.032;6.998;2024-02-23T09:41:19;8.48;71.67
35085;SHT85;21267;51.032;6.998;2024-02-23T09:43:47;8.45;71.43
35085;SHT85;21267;51.032;6.998;2024-02-23T09:46:18;8.86;71.50
35085;SHT85;21267;51.032;6.998;2024-02-23T09:48:45;9.41;69.99
35085;SHT85;21267;51.032;6.998;2024-02-23T09:51:13;10.19;68.37
35085;SHT85;21267;51.032;6.998;2024-02-23T09:53:41;10.56;66.73
35085;SHT85;21267;51.032;6.998;2024-02-23T09:56:11;10.06;66.76
35085;SHT85;21267;51.032;6.998;2024-02-23T09:58:39;9.44;67.77
35085;SHT85;21267;51.032;6.998;2024-02-23T10:01:08;9.57;66.49
35085;SHT85;21267;51.032;6.998;2024-02-23T10:03:39;9.43;67.10
35085;SHT85;21267;51.032;6.998;2024-02-23T10:06:06;9.41;67.44
35085;SHT85;21267;51.032;6.998;2024-02-23T10:08:33;9.41;68.41
35085;SHT85;21267;51.032;6.998;2024-02-23T10:11:00;8.92;68.32
35085;SHT85;21267;51.032;6.998;2024-02-23T10:13:29;8.74;69.00
35085;SHT85;21267;51.032;6.998;2024-02-23T10:15:56;8.71;69.74
35085;SHT85;21267;51.032;6.998;2024-02-23T10:18:40;8.71;69.52
35085;SHT85;21267;51.032;6.998;2024-02-23T10:21:07;8.64;69.05
35085;SHT85;21267;51.032;6.998;2024-02-23T10:23:34;8.69;69.17
35085;SHT85;21267;51.032;6.998;2024-02-23T10:26:08;8.62;68.79
35085;SHT85;21267;51.032;6.998;2024-02-23T10:28:39;8.78;69.11
35085;SHT85;21267;51.032;6.998;2024-02-23T10:31:06;9.01;68.39
35085;SHT85;21267;51.032;6.998;2024-02-23T10:33:37;9.22;67.53
35085;SHT85;21267;51.032;6.998;2024-02-23T10:36:08;9.13;67.28
35085;SHT85;21267;51.032;6.998;2024-02-23T10:38:37;9.09;68.04
35085;SHT85;21267;51.032;6.998;2024-02-23T10:41:06;8.92;68.67
35085;SHT85;21267;51.032;6.998;2024-02-23T10:43:47;8.99;68.94
35085;SHT85;21267;51.032;6.998;2024-02-23T10:46:15;9.06;68.96
35085;SHT85;21267;51.032;6.998;2024-02-23T10:48:43;8.98;68.87
35085;SHT85;21267;51.032;6.998;2024-02-23T10:51:13;9.09;69.40
35085;SHT85;21267;51.032;6.998;2024-02-23T10:53:46;9.03;69.48
35085;SHT85;21267;51.032;6.998;2024-02-23T10:56:13;8.78;70.26
35085;SHT85;21267;51.032;6.998;2024-02-23T10:58:40;8.81;70.22
35085;SHT85;21267;51.032;6.998;2024-02-23T11:01:07;8.92;70.33
35085;SHT85;21267;51.032;6.998;2024-02-23T11:03:37;8.92;70.07
35085;SHT85;21267;51.032;6.998;2024-02-23T11:06:08;8.85;70.10
35085;SHT85;21267;51.032;6.998;2024-02-23T11:08:36;8.83;69.89
35085;SHT85;21267;51.032;6.998;2024-02-23T11:11:10;8.75;69.96
35085;SHT85;21267;51.032;6.998;2024-02-23T11:13:39;8.69;70.02
35085;SHT85;21267;51.032;6.998;2024-02-23T11:16:07;8.82;70.39
35085;SHT85;21267;51.032;6.998;2024-02-23T11:18:40;8.65;70.20
35085;SHT85;21267;51.032;6.998;2024-02-23T11:21:11;8.69;70.25
35085;SHT85;21267;51.032;6.998;2024-02-23T11:23:47;8.75;70.68
35085;SHT85;21267;51.032;6.998;2024-02-23T11:26:18;8.79;70.91
35085;SHT85;21267;51.032;6.998;2024-02-23T11:31:19;8.74;70.57
35085;SHT85;21267;51.032;6.998;2024-02-23T11:33:50;8.78;70.09
35085;SHT85;21267;51.032;6.998;2024-02-23T11:36:32;8.79;70.08
35085;SHT85;21267;51.032;6.998;2024-02-23T11:39:00;9.05;70.21
35085;SHT85;21267;51.032;6.998;2024-02-23T11:41:28;9.12;70.20
35085;SHT85;21267;51.032;6.998;2024-02-23T11:43:56;9.33;69.94
35085;SHT85;21267;51.032;6.998;2024-02-23T11:46:25;9.34;69.45
35085;SHT85;21267;51.032;6.998;2024-02-23T11:48:52;9.40;69.34
35085;SHT85;21267;51.032;6.998;2024-02-23T11:51:23;9.30;68.88
35085;SHT85;21267;51.032;6.998;2024-02-23T11:53:55;9.34;69.19
35085;SHT85;21267;51.032;6.998;2024-02-23T11:56:25;9.40;68.69
35085;SHT85;21267;51.032;6.998;2024-02-23T11:58:54;9.27;68.82
35085;SHT85;21267;51.032;6.998;2024-02-23T12:01:22;9.40;68.76
35085;SHT85;21267;51.032;6.998;2024-02-23T12:03:51;9.32;68.65
35085;SHT85;21267;51.032;6.998;2024-02-23T12:06:18;9.26;68.25
35085;SHT85;21267;51.032;6.998;2024-02-23T12:08:45;9.11;67.65
35085;SHT85;21267;51.032;6.998;2024-02-23T12:11:13;9.06;67.89
35085;SHT85;21267;51.032;6.998;2024-02-23T12:13:41;9.09;67.94
35085;SHT85;21267;51.032;6.998;2024-02-23T12:16:09;9.11;68.15
35085;SHT85;21267;51.032;6.998;2024-02-23T12:18:38;9.08;68.20
35085;SHT85;21267;51.032;6.998;2024-02-23T12:21:07;9.13;68.08
35085;SHT85;21267;51.032;6.998;2024-02-23T12:23:42;9.09;68.10
35085;SHT85;21267;51.032;6.998;2024-02-23T12:26:14;9.11;68.12
35085;SHT85;21267;51.032;6.998;2024-02-23T12:28:41;9.11;68.24
35085;SHT85;21267;51.032;6.998;2024-02-23T12:31:09;9.12;68.29
35085;SHT85;21267;51.032;6.998;2024-02-23T12:33:38;9.09;68.31
35085;SHT85;21267;51.032;6.998;2024-02-23T12:36:08;9.08;68.40
35085;SHT85;21267;51.032;6.998;2024-02-23T12:38:36;9.05;68.73
35085;SHT85;21267;51.032;6.998;2024-02-23T12:41:04;9.11;68.69
35085;SHT85;21267;51.032;6.998;2024-02-23T12:43:31;9.13;68.87
35085;SHT85;21267;51.032;6.998;2024-02-23T12:45:59;9.19;68.62
35085;SHT85;21267;51.032;6.998;2024-02-23T12:48:26;9.34;68.71
35085;SHT85;21267;51.032;6.998;2024-02-23T12:50:54;9.39;68.52
35085;SHT85;21267;51.032;6.998;2024-02-23T12:53:38;9.55;68.40
35085;SHT85;21267;51.032;6.998;2024-02-23T12:58:41;9.88;67.89
35085;SHT85;21267;51.032;6.998;2024-02-23T13:01:09;9.81;67.98
35085;SHT85;21267;51.032;6.998;2024-02-23T13:03:37;9.87;67.59
35085;SHT85;21267;51.032;6.998;2024-02-23T13:06:05;9.74;67.60
35085;SHT85;21267;51.032;6.998;2024-02-23T13:08:32;9.97;67.26
35085;SHT85;21267;51.032;6.998;2024-02-23T13:11:00;10.05;66.88
35085;SHT85;21267;51.032;6.998;2024-02-23T13:13:27;9.94;67.12
35085;SHT85;21267;51.032;6.998;2024-02-23T13:15:54;9.95;67.29
35085;SHT85;21267;51.032;6.998;2024-02-23T13:18:22;10.34;66.49
35085;SHT85;21267;51.032;6.998;2024-02-23T13:20:50;10.74;65.86
35085;SHT85;21267;51.032;6.998;2024-02-23T13:23:17;10.83;64.88
35085;SHT85;21267;51.032;6.998;2024-02-23T13:25:44;10.84;64.22
35085;SHT85;21267;51.032;6.998;2024-02-23T13:28:12;10.57;63.51
35085;SHT85;21267;51.032;6.998;2024-02-23T13:30:39;10.43;64.35
35085;SHT85;21267;51.032;6.998;2024-02-23T13:33:06;10.40;65.38
35085;SHT85;21267;51.032;6.998;2024-02-23T13:35:35;10.76;65.04
35085;SHT85;21267;51.032;6.998;2024-02-23T13:38:02;11.69;63.38
35085;SHT85;21267;51.032;6.998;2024-02-23T13:40:32;11.53;62.83
35085;SHT85;21267;51.032;6.998;2024-02-23T13:43:01;11.12;63.44
35085;SHT85;21267;51.032;6.998;2024-02-23T13:45:27;11.25;63.92
35085;SHT85;21267;51.032;6.998;2024-02-23T13:48:01;11.31;63.20
35085;SHT85;21267;51.032;6.998;2024-02-23T13:50:29;11.11;63.62
35085;SHT85;21267;51.032;6.998;2024-02-23T13:52:57;10.97;64.09
35085;SHT85;21267;51.032;6.998;2024-02-23T13:55:24;10.70;64.18
35085;SHT85;21267;51.032;6.998;2024-02-23T13:57:51;10.87;64.41
35085;SHT85;21267;51.032;6.998;2024-02-23T14:00:20;10.64;63.79
35085;SHT85;21267;51.032;6.998;2024-02-23T14:02:48;10.83;63.52
35085;SHT85;21267;51.032;6.998;2024-02-23T14:05:16;10.77;63.27
35085;SHT85;21267;51.032;6.998;2024-02-23T14:07:49;10.90;62.72
35085;SHT85;21267;51.032;6.998;2024-02-23T14:10:19;11.80;61.19
35085;SHT85;21267;51.032;6.998;2024-02-23T14:12:46;11.63;61.26
35085;SHT85;21267;51.032;6.998;2024-02-23T14:15:22;11.24;62.35
35085;SHT85;21267;51.032;6.998;2024-02-23T14:17:49;11.24;62.41
35085;SHT85;21267;51.032;6.998;2024-02-23T14:20:16;11.02;62.69
35085;SHT85;21267;51.032;6.998;2024-02-23T14:22:43;10.90;63.72
35085;SHT85;21267;51.032;6.998;2024-02-23T14:25:10;11.21;63.11
35085;SHT85;21267;51.032;6.998;2024-02-23T14:27:37;10.97;64.48
35085;SHT85;21267;51.032;6.998;2024-02-23T14:30:04;10.64;65.01
35085;SHT85;21267;51.032;6.998;2024-02-23T14:32:31;10.46;65.69
35085;SHT85;21267;51.032;6.998;2024-02-23T14:34:58;10.48;66.05
35085;SHT85;21267;51.032;6.998;2024-02-23T14:37:25;10.25;65.29
35085;SHT85;21267;51.032;6.998;2024-02-23T14:39:52;10.23;65.50
35085;SHT85;21267;51.032;6.998;2024-02-23T14:43:12;10.18;65.58
35085;SHT85;21267;51.032;6.998;2024-02-23T14:45:15;10.15;65.58
35085;SHT85;21267;51.032;6.998;2024-02-23T14:47:43;10.12;65.82
35085;SHT85;21267;51.032;6.998;2024-02-23T14:50:49;10.13;66.19
35085;SHT85;21267;51.032;6.998;2024-02-23T14:53:23;10.08;66.12
35085;SHT85;21267;51.032;6.998;2024-02-23T14:56:12;10.02;66.85
35085;SHT85;21267;51.032;6.998;2024-02-23T14:58:54;10.33;66.57
35085;SHT85;21267;51.032;6.998;2024-02-23T15:01:52;10.18;67.23
35085;SHT85;21267;51.032;6.998;2024-02-23T15:04:25;10.19;67.54
35085;SHT85;21267;51.032;6.998;2024-02-23T15:07:07;9.97;67.77
35085;SHT85;21267;51.032;6.998;2024-02-23T15:09:55;9.91;67.82
35085;SHT85;21267;51.032;6.998;2024-02-23T15:12:21;9.88;67.55
35085;SHT85;21267;51.032;6.998;2024-02-23T15:14:48;9.82;67.33
35085;SHT85;21267;51.032;6.998;2024-02-23T15:17:18;9.77;66.93
35085;SHT85;21267;51.032;6.998;2024-02-23T15:19:45;9.74;67.11
35085;SHT85;21267;51.032;6.998;2024-02-23T15:22:12;9.75;67.94
35085;SHT85;21267;51.032;6.998;2024-02-23T15:24:42;10.26;67.52
35085;SHT85;21267;51.032;6.998;2024-02-23T15:27:12;10.34;67.42
35085;SHT85;21267;51.032;6.998;2024-02-23T15:29:39;10.16;68.20
35085;SHT85;21267;51.032;6.998;2024-02-23T15:32:09;10.56;67.86
35085;SHT85;21267;51.032;6.998;2024-02-23T15:34:53;9.92;68.42
35085;SHT85;21267;51.032;6.998;2024-02-23T15:37:36;9.67;69.81
35085;SHT85;21267;51.032;6.998;2024-02-23T15:40:03;9.53;70.26
35085;SHT85;21267;51.032;6.998;2024-02-23T15:42:30;9.44;70.60
35085;SHT85;21267;51.032;6.998;2024-02-23T15:45:05;9.51;70.44
35085;SHT85;21267;51.032;6.998;2024-02-23T15:47:56;9.60;70.40
35085;SHT85;21267;51.032;6.998;2024-02-23T15:50:23;9.55;70.54
35085;SHT85;21267;51.032;6.998;2024-02-23T15:53:13;9.74;70.13
35085;SHT85;21267;51.032;6.998;2024-02-23T15:55:43;9.91;69.97
35085;SHT85;21267;51.032;6.998;2024-02-23T15:58:10;10.08;69.71
35085;SHT85;21267;51.032;6.998;2024-02-23T16:00:38;9.82;70.26
35085;SHT85;21267;51.032;6.998;2024-02-23T16:03:05;9.63;70.53
35085;SHT85;21267;51.032;6.998;2024-02-23T16:05:32;9.57;70.64
35085;SHT85;21267;51.032;6.998;2024-02-23T16:07:59;9.55;71.09